Time;durP1;ratioP1;P1;durP2;ratioP2;P2;SDS_P1;SDS_P2;PMS_P1;PMS_P2;Temp;Humidity;BMP_temperature;BMP_pressure;BME280_temperature;BME280_humidity;BME280_pressure;Samples;Min_cycle;Max_cycle;Signal;HPM_P1;HPM_P2
2024/01/28 00:00:20;;;;;;;24.27;9.27;;;;;;;1.95;96.16;103156.84;5012179;28;20021;-67
2024/01/28 00:02:46;;;;;;;14.20;9.23;;;;;;;1.93;95.93;103155.06;5010100;28;20032;-66
2024/01/28 00:05:15;;;;;;;14.30;8.67;;;;;;;1.90;95.78;103155.03;5011221;28;20014;-66
2024/01/28 00:07:40;;;;;;;13.53;7.70;;;;;;;1.87;95.50;103144.53;5009705;28;20033;-66
2024/01/28 00:10:07;;;;;;;19.07;9.43;;;;;;;1.87;95.35;103148.03;5012229;28;20401;-66
2024/01/28 00:12:32;;;;;;;15.43;8.70;;;;;;;1.83;95.39;103138.38;5011531;28;20029;-66
2024/01/28 00:15:00;;;;;;;14.93;8.50;;;;;;;1.82;95.51;103141.84;5011998;28;20034;-66
2024/01/28 00:17:26;;;;;;;10.97;8.13;;;;;;;1.79;95.75;103134.84;5011834;28;20049;-66
2024/01/28 00:19:51;;;;;;;19.43;8.83;;;;;;;1.78;95.70;103130.44;5011743;28;20092;-67
2024/01/28 00:22:19;;;;;;;16.97;8.67;;;;;;;1.74;95.00;103128.66;5011440;28;20481;-66
2024/01/28 00:24:44;;;;;;;20.80;10.20;;;;;;;1.71;95.31;103127.75;5011361;28;20155;-67
2024/01/28 00:27:10;;;;;;;16.37;8.83;;;;;;;1.69;95.46;103124.22;5011378;28;20108;-66
2024/01/28 00:29:35;;;;;;;16.70;8.80;;;;;;;1.68;95.27;103125.09;5009697;28;20036;-67
2024/01/28 00:32:01;;;;;;;19.20;9.40;;;;;;;1.64;95.67;103124.16;5011091;28;20029;-66
2024/01/28 00:34:27;;;;;;;17.73;9.73;;;;;;;1.58;95.79;103119.72;5011023;28;20034;-67
2024/01/28 00:36:53;;;;;;;21.33;10.37;;;;;;;1.47;95.88;103108.28;5009485;28;20054;-67
2024/01/28 00:39:19;;;;;;;18.13;9.30;;;;;;;1.53;95.69;103124.06;5009704;28;20025;-66
2024/01/28 00:41:44;;;;;;;18.33;9.63;;;;;;;1.49;95.82;103118.75;5010892;28;20448;-66
2024/01/28 00:44:10;;;;;;;17.00;9.27;;;;;;;1.49;95.96;103124.88;5010504;28;20029;-66
2024/01/28 00:46:36;;;;;;;16.53;9.40;;;;;;;1.48;95.76;103114.38;5011559;28;20477;-66
2024/01/28 00:49:03;;;;;;;15.87;8.87;;;;;;;1.47;95.87;103113.50;5010525;28;20026;-66
2024/01/28 00:51:28;;;;;;;17.97;9.27;;;;;;;1.46;95.62;103105.63;5011235;28;20076;-67
2024/01/28 00:53:53;;;;;;;19.27;9.20;;;;;;;1.43;95.76;103095.97;5008551;28;20408;-66
2024/01/28 00:56:21;;;;;;;14.07;8.80;;;;;;;1.42;95.74;103099.47;5000723;28;20124;-66
2024/01/28 00:58:46;;;;;;;17.63;9.77;;;;;;;1.44;96.07;103099.47;5000496;28;20025;-66
2024/01/28 01:01:12;;;;;;;13.93;8.47;;;;;;;1.43;96.53;103090.72;5003419;28;20076;-67
2024/01/28 01:03:38;;;;;;;16.37;8.83;;;;;;;1.42;96.57;103086.34;5011294;28;20103;-67
2024/01/28 01:06:05;;;;;;;15.13;7.80;;;;;;;1.39;96.63;103077.59;5010969;28;20034;-66
2024/01/28 01:08:32;;;;;;;18.07;9.33;;;;;;;1.41;96.64;103083.69;5005900;28;20025;-67
2024/01/28 01:10:58;;;;;;;15.73;9.27;;;;;;;1.47;97.64;103073.28;5003054;28;20491;-67
2024/01/28 01:13:23;;;;;;;13.83;8.50;;;;;;;1.46;96.84;103082.00;4999181;28;20032;-66
2024/01/28 01:15:49;;;;;;;11.53;8.03;;;;;;;1.47;96.67;103082.03;5005841;28;20025;-66
2024/01/28 01:18:16;;;;;;;15.73;9.23;;;;;;;1.38;96.66;103066.19;5009422;28;20080;-66
2024/01/28 01:20:42;;;;;;;18.90;9.93;;;;;;;1.46;96.96;103076.78;5009066;28;20034;-66
2024/01/28 01:23:07;;;;;;;13.57;8.00;;;;;;;1.43;96.83;103071.50;5009703;28;20087;-66
2024/01/28 01:25:32;;;;;;;15.53;8.37;;;;;;;1.42;97.48;103064.50;5009427;28;20553;-66
2024/01/28 01:27:58;;;;;;;19.23;9.60;;;;;;;1.44;97.04;103068.91;5010532;28;20397;-66
2024/01/28 01:30:26;;;;;;;15.10;8.67;;;;;;;1.42;96.97;103068.00;5009411;28;20040;-67
2024/01/28 01:32:52;;;;;;;15.03;8.60;;;;;;;1.43;97.32;103064.50;5009144;28;20485;-67
2024/01/28 01:35:20;;;;;;;20.77;9.53;;;;;;;1.33;97.32;103046.94;5010635;28;20180;-66
2024/01/28 01:37:48;;;;;;;14.83;8.83;;;;;;;1.38;97.29;103060.06;5008522;28;20033;-67
2024/01/28 01:40:14;;;;;;;15.97;8.83;;;;;;;1.29;96.87;103056.47;5008934;28;20030;-66
2024/01/28 01:42:42;;;;;;;17.70;10.00;;;;;;;1.35;97.47;103076.63;5010442;28;20026;-66
2024/01/28 01:45:08;;;;;;;14.90;9.07;;;;;;;1.33;96.69;103075.75;5013505;28;20014;-66
2024/01/28 01:47:33;;;;;;;17.27;9.20;;;;;;;1.31;96.96;103067.00;5014868;28;20557;-66
2024/01/28 01:49:58;;;;;;;16.70;7.90;;;;;;;1.27;97.16;103073.06;5012482;28;20482;-66
2024/01/28 01:52:24;;;;;;;18.73;9.60;;;;;;;1.24;97.27;103076.53;5014452;28;20033;-67
2024/01/28 01:54:53;;;;;;;16.73;8.33;;;;;;;1.25;97.14;103083.53;4997262;28;20485;-66
2024/01/28 01:57:20;;;;;;;19.03;9.07;;;;;;;1.17;97.09;103072.06;5014134;28;20018;-67
2024/01/28 01:59:48;;;;;;;15.13;9.13;;;;;;;1.17;97.17;103081.69;5014851;28;20018;-67
2024/01/28 02:02:16;;;;;;;18.20;9.63;;;;;;;1.14;97.46;103078.16;5013406;28;20026;-67
2024/01/28 02:04:44;;;;;;;15.10;8.90;;;;;;;1.16;97.25;103080.81;5014667;28;20054;-66
2024/01/28 02:07:10;;;;;;;16.83;8.97;;;;;;;1.12;97.35;103071.16;5010725;28;20030;-66
2024/01/28 02:09:35;;;;;;;16.33;7.97;;;;;;;1.04;97.14;103062.31;5012524;28;20033;-67
2024/01/28 02:12:02;;;;;;;13.13;8.90;;;;;;;1.11;96.67;103077.25;5012703;28;20045;-67
2024/01/28 02:14:28;;;;;;;14.20;8.17;;;;;;;1.08;96.83;103071.97;5012940;28;20033;-66
2024/01/28 02:16:59;;;;;;;16.93;8.50;;;;;;;1.03;97.00;103063.16;5014145;28;20041;-66
2024/01/28 02:19:25;;;;;;;;;;;;;;;1.03;96.53;103061.44;5014544;28;20109;-66
2024/01/28 02:21:51;;;;;;;15.40;8.40;;;;;;;0.96;96.46;103054.34;5011863;28;19921;-66
2024/01/28 02:24:16;;;;;;;15.73;8.73;;;;;;;0.93;96.99;103048.19;5012150;28;20504;-66
2024/01/28 02:26:42;;;;;;;14.30;8.50;;;;;;;0.92;97.13;103056.94;5013338;28;20033;-66
2024/01/28 02:29:09;;;;;;;19.80;9.87;;;;;;;0.89;97.24;103042.91;5012563;28;20522;-67
2024/01/28 02:31:37;;;;;;;23.37;10.33;;;;;;;0.82;97.84;103027.97;5012805;28;20030;-66
2024/01/28 02:34:03;;;;;;;17.73;9.10;;;;;;;0.91;97.69;103040.31;5011636;28;20025;-67
2024/01/28 02:36:29;;;;;;;16.57;8.93;;;;;;;0.89;97.28;103032.44;5012951;28;20172;-66
2024/01/28 02:38:55;;;;;;;16.17;9.30;;;;;;;0.90;97.16;103026.34;5013459;28;20025;-66
2024/01/28 02:41:20;;;;;;;21.47;9.57;;;;;;;0.57;96.61;102973.56;4995898;28;20388;-66
2024/01/28 02:43:46;;;;;;;23.07;9.37;;;;;;;0.79;97.49;103003.50;5013663;28;20777;-66
2024/01/28 02:46:13;;;;;;;16.63;9.53;;;;;;;0.85;96.95;103019.28;5012295;28;20102;-66
2024/01/28 02:48:38;;;;;;;23.47;9.90;;;;;;;0.82;97.27;103020.13;5013905;28;20022;-66
2024/01/28 02:51:04;;;;;;;14.53;9.00;;;;;;;0.82;96.81;103025.34;5013662;28;20517;-66
2024/01/28 02:53:32;;;;;;;15.97;9.33;;;;;;;0.81;96.78;103025.34;5013316;28;20045;-67
2024/01/28 02:55:59;;;;;;;19.60;10.27;;;;;;;0.77;97.07;103016.59;5012698;28;20030;-67
2024/01/28 02:58:25;;;;;;;16.50;11.00;;;;;;;0.77;96.47;103015.72;5012532;28;20030;-67
2024/01/28 03:00:51;;;;;;;16.63;9.50;;;;;;;0.76;96.40;103019.16;5006325;28;20068;-66
2024/01/28 03:03:16;;;;;;;15.57;9.87;;;;;;;0.72;96.25;103020.88;5013796;28;20396;-66
2024/01/28 03:05:42;;;;;;;22.33;10.10;;;;;;;0.71;96.01;103023.44;5013642;28;20584;-66
2024/01/28 03:08:07;;;;;;;13.80;9.27;;;;;;;0.64;95.81;103018.13;5012771;28;20117;-67
2024/01/28 03:10:33;;;;;;;19.40;10.53;;;;;;;0.59;96.40;103006.75;5013422;28;20022;-67
2024/01/28 03:12:58;;;;;;;17.23;9.70;;;;;;;0.53;96.48;103004.06;5013469;28;20026;-67
2024/01/28 03:15:24;;;;;;;14.87;9.97;;;;;;;0.43;96.44;102995.19;5013435;28;20477;-66
2024/01/28 03:17:49;;;;;;;16.90;9.50;;;;;;;0.44;96.29;102989.09;5011247;28;20486;-66
2024/01/28 03:20:17;;;;;;;22.63;10.47;;;;;;;0.44;96.53;102996.97;5012801;28;20393;-66
2024/01/28 03:22:42;;;;;;;21.03;10.23;;;;;;;0.43;96.29;102986.44;5010450;28;20037;-66
2024/01/28 03:25:08;;;;;;;19.67;9.20;;;;;;;0.43;96.74;102987.31;5013076;28;20034;-66
2024/01/28 03:27:34;;;;;;;19.10;9.20;;;;;;;0.42;96.87;102993.44;5012377;28;20025;-66
2024/01/28 03:30:00;;;;;;;18.07;8.10;;;;;;;0.36;96.03;102979.38;5012900;28;20033;-66
2024/01/28 03:32:25;;;;;;;14.10;8.80;;;;;;;0.35;96.53;102985.47;5012639;28;20053;-66
2024/01/28 03:34:50;;;;;;;15.87;9.77;;;;;;;0.34;96.17;102984.59;5011622;28;20030;-66
2024/01/28 03:37:16;;;;;;;17.10;9.57;;;;;;;0.30;96.41;102982.78;5011956;28;20050;-67
2024/01/28 03:39:41;;;;;;;16.17;8.83;;;;;;;0.28;96.28;102987.13;5012672;28;20049;-66
2024/01/28 03:42:07;;;;;;;15.90;8.47;;;;;;;0.25;96.23;102986.19;5012540;28;20100;-66
2024/01/28 03:44:32;;;;;;;16.80;9.60;;;;;;;0.27;96.69;102995.84;5012349;28;20503;-66
2024/01/28 03:46:58;;;;;;;17.47;8.47;;;;;;;0.25;97.03;102987.06;5011690;28;20033;-66
2024/01/28 03:49:27;;;;;;;17.30;9.33;;;;;;;0.24;97.03;102995.78;5010943;28;20022;-66
2024/01/28 03:51:53;;;;;;;14.03;8.40;;;;;;;0.23;97.28;102988.78;5011042;28;20034;-67
2024/01/28 03:54:18;;;;;;;14.27;8.80;;;;;;;0.27;98.36;102969.66;5011353;28;20049;-66
2024/01/28 03:56:43;;;;;;;14.50;9.00;;;;;;;0.39;98.04;102971.56;5012411;28;20041;-67
2024/01/28 03:59:09;;;;;;;17.97;8.17;;;;;;;0.44;97.76;102973.41;5012890;28;20100;-66
2024/01/28 04:01:35;;;;;;;15.33;8.33;;;;;;;0.45;98.64;102975.16;5010595;28;20029;-66
2024/01/28 04:04:00;;;;;;;12.93;8.10;;;;;;;0.48;97.98;102974.31;5010991;28;20038;-66
2024/01/28 04:06:26;;;;;;;14.90;8.10;;;;;;;0.47;97.84;102976.88;5011469;28;20026;-66
2024/01/28 04:08:55;;;;;;;15.63;8.07;;;;;;;0.44;97.40;102986.47;5012081;28;20080;-67
2024/01/28 04:11:27;;;;;;;13.20;7.77;;;;;;;0.38;97.76;102986.41;5011788;28;20029;-67
2024/01/28 04:13:56;;;;;;;21.70;8.57;;;;;;;0.38;97.38;102990.72;5011877;28;20475;-67
2024/01/28 04:16:22;;;;;;;15.67;8.33;;;;;;;0.36;97.95;102990.72;5012174;28;20466;-67
2024/01/28 04:18:49;;;;;;;18.60;8.47;;;;;;;0.33;97.37;102977.59;5011153;28;20528;-67
2024/01/28 04:21:14;;;;;;;17.67;8.23;;;;;;;0.05;98.03;102929.22;5007301;28;20492;-67
2024/01/28 04:23:40;;;;;;;13.20;7.40;;;;;;;0.30;98.37;102976.69;4994156;28;20034;-66
2024/01/28 04:26:10;;;;;;;15.33;8.03;;;;;;;0.28;97.91;102970.53;5011804;28;20025;-67
2024/01/28 04:28:36;;;;;;;;;;;;;;;0.30;97.98;102967.09;5010836;28;20092;-66
2024/01/28 04:31:02;;;;;;;13.00;7.57;;;;;;;0.22;98.25;102947.78;5011621;28;20368;-66
2024/01/28 04:33:28;;;;;;;18.53;7.87;;;;;;;0.19;98.70;102939.91;5010197;28;20026;-67
2024/01/28 04:35:54;;;;;;;11.67;7.63;;;;;;;0.25;99.16;102945.22;5011034;28;20061;-67
2024/01/28 04:38:19;;;;;;;10.87;7.23;;;;;;;0.27;99.46;102943.50;5009663;28;20033;-67
2024/01/28 04:40:44;;;;;;;14.60;7.70;;;;;;;0.22;99.57;102924.25;5010937;28;20064;-67
2024/01/28 04:43:10;;;;;;;10.47;7.43;;;;;;;0.35;98.97;102939.22;5010111;28;20428;-67
2024/01/28 04:45:36;;;;;;;16.60;8.47;;;;;;;0.41;99.57;102943.66;5011465;28;20045;-67
2024/01/28 04:48:01;;;;;;;14.33;7.23;;;;;;;0.44;99.48;102944.59;5011082;28;20062;-66
2024/01/28 04:50:27;;;;;;;14.20;8.67;;;;;;;0.46;98.77;102934.13;5009759;28;20448;-67
2024/01/28 04:52:52;;;;;;;14.53;6.80;;;;;;;0.49;99.02;102934.19;5010809;28;20018;-67
2024/01/28 04:55:17;;;;;;;16.47;8.33;;;;;;;0.47;98.41;102925.41;5010423;28;20473;-66
2024/01/28 04:57:45;;;;;;;17.13;6.77;;;;;;;0.42;98.30;102917.53;5011438;28;20028;-66
2024/01/28 05:00:12;;;;;;;16.27;7.43;;;;;;;0.19;98.25;102888.44;5011128;28;20017;-66
2024/01/28 05:02:38;;;;;;;9.50;6.60;;;;;;;0.47;98.44;102933.25;5010535;28;20022;-67
2024/01/28 05:05:04;;;;;;;15.20;7.00;;;;;;;0.41;98.31;102917.50;5011245;28;20366;-66
2024/01/28 05:07:30;;;;;;;11.13;6.77;;;;;;;0.46;98.12;102928.91;5009337;28;20068;-66
2024/01/28 05:09:56;;;;;;;8.60;6.40;;;;;;;0.41;98.19;102936.72;5009794;28;20034;-66
2024/01/28 05:12:21;;;;;;;13.10;6.70;;;;;;;0.35;98.57;102935.72;5007363;28;20029;-66
2024/01/28 05:14:47;;;;;;;22.10;8.83;;;;;;;0.30;98.22;102940.06;5008524;28;20030;-66
2024/01/28 05:17:12;;;;;;;9.70;6.60;;;;;;;0.21;98.66;102920.75;5000252;28;20057;-66
2024/01/28 05:19:38;;;;;;;14.73;7.57;;;;;;;0.23;98.48;102929.47;5001329;28;20022;-67
2024/01/28 05:22:04;;;;;;;12.80;6.53;;;;;;;0.14;98.47;102915.41;4998342;28;20026;-66
2024/01/28 05:24:30;;;;;;;14.40;6.97;;;;;;;0.17;98.70;102926.78;4998078;28;20030;-66
2024/01/28 05:26:55;;;;;;;13.90;7.53;;;;;;;0.17;99.00;102923.28;4999770;28;20037;-67
2024/01/28 05:29:21;;;;;;;13.27;6.70;;;;;;;0.07;98.63;102906.59;5001771;28;20363;-66
2024/01/28 05:31:46;;;;;;;8.63;6.30;;;;;;;0.12;98.49;102923.25;4999047;28;20099;-66
2024/01/28 05:34:11;;;;;;;15.30;6.87;;;;;;;0.07;98.37;102898.75;5000527;28;20101;-66
2024/01/28 05:36:37;;;;;;;25.00;7.30;;;;;;;0.13;98.77;102903.19;4999022;28;20093;-67
2024/01/28 05:39:02;;;;;;;12.87;7.47;;;;;;;0.15;99.33;102891.00;5001520;28;20533;-66
2024/01/28 05:41:28;;;;;;;19.07;7.83;;;;;;;0.22;98.60;102887.59;5001858;28;20374;-66
2024/01/28 05:43:53;;;;;;;15.33;6.63;;;;;;;0.28;98.96;102897.28;5001709;28;20026;-67
2024/01/28 05:46:19;;;;;;;16.43;7.83;;;;;;;0.26;98.54;102878.91;5009873;28;20021;-66
2024/01/28 05:48:44;;;;;;;12.07;7.37;;;;;;;0.28;98.72;102886.81;5010473;28;20033;-66
2024/01/28 05:51:10;;;;;;;22.43;8.20;;;;;;;0.32;98.95;102879.00;5010341;28;20026;-66
2024/01/28 05:53:35;;;;;;;19.10;8.03;;;;;;;0.31;98.67;102882.47;5010442;28;20048;-66
2024/01/28 05:56:00;;;;;;;18.10;8.43;;;;;;;0.31;98.12;102879.88;5007910;28;20029;-66
2024/01/28 05:58:26;;;;;;;16.77;7.67;;;;;;;0.30;97.98;102880.75;5010857;28;20048;-66
2024/01/28 06:00:53;;;;;;;13.80;8.23;;;;;;;0.25;98.34;102866.72;5009372;28;20469;-66
2024/01/28 06:03:19;;;;;;;11.17;7.47;;;;;;;0.29;98.21;102875.47;5010628;28;20451;-66
2024/01/28 06:05:44;;;;;;;16.10;7.53;;;;;;;0.31;97.86;102866.78;5010067;28;20116;-67
2024/01/28 06:08:10;;;;;;;15.00;7.57;;;;;;;0.30;98.14;102865.03;5009957;28;20036;-67
2024/01/28 06:10:35;;;;;;;14.63;8.20;;;;;;;0.30;97.51;102856.31;5009150;28;20108;-67
2024/01/28 06:13:01;;;;;;;18.33;7.50;;;;;;;0.29;97.93;102857.16;5010748;28;20029;-67
2024/01/28 06:15:27;;;;;;;12.47;7.57;;;;;;;0.26;97.24;102857.13;5003620;28;20026;-66
2024/01/28 06:17:53;;;;;;;14.50;6.93;;;;;;;0.23;97.59;102852.72;4999829;28;20033;-66
2024/01/28 06:20:18;;;;;;;13.03;7.70;;;;;;;0.16;97.81;102848.28;5005738;28;20025;-66
2024/01/28 06:22:46;;;;;;;9.60;7.10;;;;;;;0.17;98.25;102847.41;5007235;28;20026;-67
2024/01/28 06:25:11;;;;;;;15.23;7.50;;;;;;;0.15;97.75;102852.63;5008492;28;20030;-67
2024/01/28 06:27:37;;;;;;;13.77;7.27;;;;;;;0.10;97.55;102849.09;5008713;28;20096;-67
2024/01/28 06:30:02;;;;;;;12.77;8.17;;;;;;;0.07;98.24;102843.81;5009061;28;20416;-67
2024/01/28 06:32:32;;;;;;;9.23;6.63;;;;;;;0.06;97.85;102854.25;5013487;28;20029;-67
2024/01/28 06:34:57;;;;;;;14.93;8.40;;;;;;;0.00;97.90;102849.84;5013100;28;20029;-67
2024/01/28 06:37:24;;;;;;;10.70;7.60;;;;;;;-0.04;98.30;102845.41;5012947;28;20809;-67
2024/01/28 06:39:51;;;;;;;14.77;7.10;;;;;;;-0.05;98.25;102846.28;5013789;28;20018;-67
2024/01/28 06:42:22;;;;;;;14.97;7.20;;;;;;;-0.04;98.28;102848.91;5014263;28;20069;-67
2024/01/28 06:44:49;;;;;;;12.43;7.03;;;;;;;-0.04;98.04;102841.03;5009610;28;20453;-67
2024/01/28 06:47:15;;;;;;;12.57;6.83;;;;;;;-0.08;98.49;102846.22;5012821;28;20018;-67
2024/01/28 06:49:41;;;;;;;15.27;6.70;;;;;;;-0.14;98.57;102836.56;5013103;28;20037;-67
2024/01/28 06:52:06;;;;;;;12.00;7.03;;;;;;;-0.15;98.71;102834.78;5012957;28;20029;-67
2024/01/28 06:54:32;;;;;;;13.60;7.47;;;;;;;-0.22;98.13;102832.97;5013514;28;20045;-67
2024/01/28 06:56:57;;;;;;;13.33;7.17;;;;;;;-0.22;98.19;102832.09;5011500;28;20076;-67
2024/01/28 06:59:23;;;;;;;15.00;7.47;;;;;;;-0.26;98.64;102826.81;5012538;28;20049;-67
2024/01/28 07:01:48;;;;;;;10.37;6.47;;;;;;;-0.26;98.30;102836.41;5013207;28;20026;-67
2024/01/28 07:04:14;;;;;;;7.03;6.33;;;;;;;-0.28;98.81;102831.13;5013781;28;20108;-67
2024/01/28 07:06:39;;;;;;;20.43;7.63;;;;;;;-0.31;98.21;102828.47;5012071;28;20508;-67
2024/01/28 07:09:05;;;;;;;12.90;7.37;;;;;;;-0.29;99.03;102831.13;5012262;28;20153;-67
2024/01/28 07:11:31;;;;;;;13.83;7.77;;;;;;;-0.30;99.14;102832.84;5012041;28;20028;-67
2024/01/28 07:13:59;;;;;;;10.63;7.00;;;;;;;-0.28;99.16;102840.72;5011868;28;20022;-67
2024/01/28 07:16:24;;;;;;;11.77;7.13;;;;;;;-0.26;99.21;102846.88;5012590;28;20052;-67
2024/01/28 07:18:50;;;;;;;8.73;7.03;;;;;;;-0.25;98.77;102840.78;5012558;28;20461;-67
2024/01/28 07:21:15;;;;;;;10.90;7.63;;;;;;;-0.24;99.19;102846.03;5013519;28;20141;-67
2024/01/28 07:23:41;;;;;;;12.27;7.13;;;;;;;-0.31;98.90;102820.66;5013580;28;20374;-67
2024/01/28 07:26:09;;;;;;;13.00;7.17;;;;;;;-0.18;98.97;102836.50;5013911;28;20032;-67
2024/01/28 07:28:37;;;;;;;10.50;7.77;;;;;;;-0.19;98.51;102822.53;5013465;28;20030;-67
2024/01/28 07:31:03;;;;;;;16.33;7.63;;;;;;;-0.15;98.32;102823.47;5012357;28;20029;-67
2024/01/28 07:33:28;;;;;;;11.47;7.13;;;;;;;-0.28;98.01;102801.50;5013802;28;20389;-67
2024/01/28 07:35:54;;;;;;;10.27;6.30;;;;;;;-0.14;97.54;102828.72;5013333;28;20050;-67
2024/01/28 07:38:19;;;;;;;12.07;6.47;;;;;;;-0.15;97.60;102824.34;5013201;28;20041;-67
2024/01/28 07:40:45;;;;;;;10.83;6.77;;;;;;;-0.13;98.26;102817.41;5011977;28;20024;-67
2024/01/28 07:43:10;;;;;;;11.30;6.57;;;;;;;-0.14;97.14;102815.66;5011279;28;20481;-67
2024/01/28 07:45:38;;;;;;;13.97;6.57;;;;;;;-0.09;97.53;102819.22;5013483;28;20068;-67
2024/01/28 07:48:04;;;;;;;18.53;6.90;;;;;;;-0.03;96.91;102815.75;5011903;28;20477;-67
2024/01/28 07:50:30;;;;;;;18.50;6.90;;;;;;;-0.08;96.80;102810.50;5013374;28;20017;-67
2024/01/28 07:52:55;;;;;;;10.20;7.37;;;;;;;0.03;96.81;102822.81;5012686;28;20106;-67
2024/01/28 07:55:21;;;;;;;13.70;7.23;;;;;;;0.04;97.15;102828.09;5012046;28;20385;-67
2024/01/28 07:57:46;;;;;;;18.17;6.90;;;;;;;0.03;97.19;102813.25;5012719;28;20018;-67
2024/01/28 08:00:12;;;;;;;8.33;6.57;;;;;;;0.04;97.02;102815.00;5013328;28;20049;-67
2024/01/28 08:02:37;;;;;;;13.40;6.87;;;;;;;0.06;97.20;102809.78;5012957;28;20381;-67
2024/01/28 08:05:06;;;;;;;9.63;6.33;;;;;;;0.09;97.67;102807.19;5013150;28;20018;-67
2024/01/28 08:07:33;;;;;;;9.60;6.63;;;;;;;0.08;96.75;102806.31;5011187;28;20045;-67
2024/01/28 08:09:59;;;;;;;12.23;7.10;;;;;;;0.11;96.80;102810.72;5012825;28;20041;-67
2024/01/28 08:12:24;;;;;;;9.03;7.23;;;;;;;0.19;96.79;102817.78;5012716;28;20469;-67
2024/01/28 08:14:52;;;;;;;14.27;6.50;;;;;;;0.22;97.23;102820.44;5011435;28;20026;-67
2024/01/28 08:17:18;;;;;;;11.50;6.80;;;;;;;0.26;96.99;102813.50;5011577;28;20026;-67
2024/01/28 08:19:43;;;;;;;10.77;6.33;;;;;;;0.31;96.18;102801.34;5012782;28;20024;-67
2024/01/28 08:22:09;;;;;;;11.83;6.90;;;;;;;0.31;96.40;102796.13;5012420;28;20096;-66
2024/01/28 08:24:34;;;;;;;12.07;6.77;;;;;;;0.34;96.32;102790.06;5012379;28;20029;-67
2024/01/28 08:27:00;;;;;;;11.67;6.30;;;;;;;0.36;96.18;102799.69;5012361;28;20061;-67
2024/01/28 08:29:25;;;;;;;13.73;6.40;;;;;;;0.43;96.12;102798.00;5012631;28;20025;-67
2024/01/28 08:31:51;;;;;;;14.50;6.17;;;;;;;0.39;95.73;102781.38;5012270;28;20022;-67
2024/01/28 08:34:16;;;;;;;14.50;7.30;;;;;;;0.52;95.52;102798.09;5012675;28;20065;-67
2024/01/28 08:36:42;;;;;;;10.07;6.93;;;;;;;0.57;96.25;102787.66;5011752;28;20073;-67
2024/01/28 08:39:09;;;;;;;9.13;6.43;;;;;;;0.60;95.60;102785.09;5012659;28;20076;-67
2024/01/28 08:41:36;;;;;;;11.77;6.90;;;;;;;0.70;94.86;102796.50;5011899;28;20109;-67
2024/01/28 08:44:02;;;;;;;9.03;6.00;;;;;;;0.77;95.63;102787.88;5011263;28;20018;-67
2024/01/28 08:46:28;;;;;;;10.87;6.97;;;;;;;0.84;95.99;102793.16;5012679;28;20083;-67
2024/01/28 08:48:53;;;;;;;11.30;8.13;;;;;;;0.88;95.45;102789.72;5012146;28;20022;-67
2024/01/28 08:51:19;;;;;;;19.47;8.63;;;;;;;0.97;94.58;102782.78;5011796;28;20030;-67
2024/01/28 08:53:44;;;;;;;17.20;10.00;;;;;;;1.04;93.21;102788.09;5009568;28;20555;-67
2024/01/28 08:56:09;;;;;;;16.93;10.50;;;;;;;1.12;93.34;102782.91;5012566;28;20022;-67
2024/01/28 08:58:35;;;;;;;16.37;9.17;;;;;;;1.20;92.46;102786.44;5012026;28;20018;-67
2024/01/28 09:01:01;;;;;;;17.43;8.60;;;;;;;1.25;92.08;102782.13;5010734;28;20091;-67
2024/01/28 09:03:26;;;;;;;15.13;8.50;;;;;;;1.39;91.20;102786.59;5010989;28;20032;-67
2024/01/28 09:05:54;;;;;;;11.67;7.93;;;;;;;1.43;91.45;102776.13;5011857;28;20351;-67
2024/01/28 09:08:19;;;;;;;9.73;6.60;;;;;;;1.54;90.37;102782.31;5011182;28;20053;-67
2024/01/28 09:10:45;;;;;;;20.13;7.77;;;;;;;1.62;89.83;102781.44;5011768;28;20448;-67
2024/01/28 09:13:10;;;;;;;13.50;7.23;;;;;;;1.47;90.59;102735.06;5010765;28;20025;-67
2024/01/28 09:15:36;;;;;;;7.60;6.10;;;;;;;1.76;89.20;102779.78;5011883;28;20029;-68
2024/01/28 09:18:02;;;;;;;8.68;6.05;;;;;;;1.83;87.33;102776.34;5010602;28;20061;-67
2024/01/28 09:20:29;;;;;;;9.82;6.97;;;;;;;1.87;87.04;102774.59;5010599;28;20025;-67
2024/01/28 09:22:55;;;;;;;12.13;6.75;;;;;;;1.91;86.68;102778.97;5010971;28;20060;-67
2024/01/28 09:25:20;;;;;;;13.50;6.32;;;;;;;1.96;86.65;102774.63;5011786;28;20501;-67
2024/01/28 09:27:48;;;;;;;10.90;5.93;;;;;;;2.00;87.26;102769.41;5011384;28;20478;-68
2024/01/28 09:30:14;;;;;;;12.20;6.30;;;;;;;1.99;88.11;102757.13;5011776;28;20452;-67
2024/01/28 09:32:40;;;;;;;9.50;5.87;;;;;;;2.02;87.58;102751.03;5010269;28;20117;-67
2024/01/28 09:35:05;;;;;;;9.67;6.50;;;;;;;2.13;88.40;102757.19;5010444;28;20388;-67
2024/01/28 09:37:31;;;;;;;13.20;6.40;;;;;;;2.03;86.93;102727.44;5010689;28;20046;-67
2024/01/28 09:39:56;;;;;;;6.73;5.30;;;;;;;2.27;84.56;102751.97;5010279;28;20533;-67
2024/01/28 09:42:30;;;;;;;7.50;5.60;;;;;;;2.41;83.32;102760.78;5010254;28;20032;-67
2024/01/28 09:44:58;;;;;;;9.37;5.77;;;;;;;2.53;83.04;102756.38;5011284;28;20056;-67
2024/01/28 09:47:25;;;;;;;10.43;5.53;;;;;;;2.59;81.67;102753.75;5011504;28;20072;-67
2024/01/28 09:49:52;;;;;;;10.80;6.00;;;;;;;2.72;82.08;102761.66;5009915;28;20026;-67
2024/01/28 09:52:17;;;;;;;10.43;6.10;;;;;;;2.84;81.80;102758.16;5010629;28;20124;-68
2024/01/28 09:54:47;;;;;;;8.47;5.47;;;;;;;2.93;79.28;102749.41;5010063;28;20488;-67
2024/01/28 09:57:14;;;;;;;6.10;5.28;;;;;;;3.09;78.54;102758.13;5011325;28;20033;-68
2024/01/28 09:59:39;;;;;;;9.43;5.55;;;;;;;3.19;79.33;102747.59;5011537;28;20071;-68
2024/01/28 10:02:06;;;;;;;13.23;5.70;;;;;;;3.36;78.67;102746.72;5011242;28;20100;-68
2024/01/28 10:04:34;;;;;;;6.35;5.13;;;;;;;3.53;79.21;102746.63;5010155;28;20026;-68
2024/01/28 10:07:01;;;;;;;9.68;5.25;;;;;;;3.62;79.40;102738.75;5014648;28;20384;-68
2024/01/28 10:09:28;;;;;;;6.30;4.80;;;;;;;3.81;76.36;102743.03;5015386;28;20026;-68
2024/01/28 10:11:53;;;;;;;9.93;4.97;;;;;;;4.04;76.53;102737.66;5014946;28;20033;-68
2024/01/28 10:14:20;;;;;;;9.60;5.22;;;;;;;4.31;76.82;102736.63;5013943;28;20022;-68
2024/01/28 10:16:48;;;;;;;11.80;5.45;;;;;;;4.59;75.82;102739.06;5014801;28;20036;-68
2024/01/28 10:19:14;;;;;;;10.93;5.65;;;;;;;4.83;73.56;102737.13;5015037;28;20434;-68
2024/01/28 10:21:42;;;;;;;7.65;5.10;;;;;;;5.10;71.10;102739.50;5013005;28;20062;-68
2024/01/28 10:24:14;;;;;;;8.13;4.88;;;;;;;5.31;69.06;102730.50;5015315;28;20030;-68
2024/01/28 10:26:40;;;;;;;9.65;5.15;;;;;;;5.60;68.76;102734.56;5014882;28;20104;-67
2024/01/28 10:29:08;;;;;;;7.20;4.78;;;;;;;5.72;65.96;102713.31;5030322;28;20160;-67
2024/01/28 10:31:33;;;;;;;9.00;5.03;;;;;;;6.01;64.45;102731.44;5014725;28;20349;-68
2024/01/28 10:33:59;;;;;;;8.70;4.90;;;;;;;6.22;63.63;102724.97;5014643;28;20034;-68
2024/01/28 10:36:25;;;;;;;8.27;4.82;;;;;;;6.44;62.66;102730.81;5012663;28;20127;-69
2024/01/28 10:38:52;;;;;;;7.22;4.93;;;;;;;6.64;61.67;102714.63;5013359;28;20022;-68
2024/01/28 10:41:18;;;;;;;10.80;4.68;;;;;;;6.97;61.71;102720.22;5014594;28;20022;-68
2024/01/28 10:43:59;;;;;;;8.40;5.05;;;;;;;7.44;62.53;102724.66;5013171;28;20037;-68
2024/01/28 10:46:34;;;;;;;6.68;4.43;;;;;;;7.94;61.95;102722.72;5013067;28;20030;-69
2024/01/28 10:49:04;;;;;;;9.45;4.45;;;;;;;8.41;57.42;102726.09;5014568;28;20050;-69
2024/01/28 10:51:34;;;;;;;6.45;4.75;;;;;;;8.78;55.52;102722.53;5012539;28;20025;-69
2024/01/28 10:54:03;;;;;;;7.00;3.97;;;;;;;9.23;55.93;102718.72;5014451;28;20444;-69
2024/01/28 10:56:31;;;;;;;7.43;4.38;;;;;;;9.65;54.16;102708.69;5014315;28;20028;-69
2024/01/28 10:58:57;;;;;;;8.50;4.28;;;;;;;10.23;55.07;102703.34;5012705;28;20018;-68
2024/01/28 11:01:28;;;;;;;6.28;3.92;;;;;;;10.72;52.74;102698.25;5014190;28;20038;-69
2024/01/28 11:03:57;;;;;;;8.63;4.70;;;;;;;10.94;50.52;102696.56;5014148;28;20026;-69
2024/01/28 11:06:27;;;;;;;9.02;3.70;;;;;;;11.14;49.50;102688.75;5013533;28;20026;-69
2024/01/28 11:08:53;;;;;;;;;;;;;;;11.46;56.50;102685.84;5014390;28;20048;-69
2024/01/28 11:11:19;;;;;;;8.27;4.20;;;;;;;11.46;47.92;102692.06;5029310;28;19913;-69
2024/01/28 11:13:44;;;;;;;10.35;5.13;;;;;;;10.64;48.79;102683.41;5014010;28;20388;-69
2024/01/28 11:16:11;;;;;;;12.35;5.50;;;;;;;10.84;48.93;102674.75;5013670;28;20089;-68
2024/01/28 11:18:39;;;;;;;9.95;5.15;;;;;;;10.74;47.67;102672.47;5012552;28;20018;-68
2024/01/28 11:21:12;;;;;;;7.30;5.13;;;;;;;10.97;48.28;102661.00;5013279;28;20034;-69